Minneapolis, Minnesota
Traffic Map
Current Weather Conditions
Minneapolis, Minnesota
Few Clouds
Few Clouds
-2°
Feels Like: -2°
Wind Chill: -2° Ceiling: Unl
Heat Index: -2° Visibility: 10mi
Dew Point: -17° Wind: 0mph
Humidity: 30% Direction: ° ()
Pressure: 30.26in Gusts: 0mph
Raw Report DataKMSP 271653Z 00000KT 10SM FEW250 M02/M17 A3026 RMK AO2 SLP258 T10171172
Traffic Incident Summary
Active as of:
Severity:
Category:
InformationThere was an issue retrieving the traffic information for this location. Please try a different location or try again shortly.
Advertisements
Track Severe Weather on mobile